Time;durP1;ratioP1;P1;durP2;ratioP2;P2;SDS_P1;SDS_P2;PMS_P1;PMS_P2;Temp;Humidity;BMP_temperature;BMP_pressure;BME280_temperature;BME280_humidity;BME280_pressure;Samples;Min_cycle;Max_cycle;Signal;HPM_P1;HPM_P2
2023/01/29 00:01:41;;;;;;;7.70;3.05;;;3.80;99.90;;;;;;5021290;28;20060;-82
2023/01/29 00:04:07;;;;;;;5.95;3.15;;;3.80;99.90;;;;;;5020600;28;20156;-82
2023/01/29 00:06:33;;;;;;;7.75;3.83;;;3.80;99.90;;;;;;5004916;28;20058;-82
2023/01/29 00:08:59;;;;;;;7.35;3.65;;;3.80;99.90;;;;;;5019928;28;20057;-82
2023/01/29 00:11:24;;;;;;;5.90;3.15;;;3.80;99.90;;;;;;5020002;28;20029;-82
2023/01/29 00:13:51;;;;;;;7.70;3.65;;;3.90;99.90;;;;;;5003478;28;20357;-82
2023/01/29 00:16:17;;;;;;;7.47;3.47;;;3.80;99.90;;;;;;5038811;28;20515;-83
2023/01/29 00:18:43;;;;;;;8.98;3.55;;;3.80;99.90;;;;;;5001528;28;20056;-82
2023/01/29 00:21:14;;;;;;;7.88;3.72;;;3.90;99.90;;;;;;5054789;28;20033;-82
2023/01/29 00:23:40;;;;;;;6.25;3.13;;;3.90;99.90;;;;;;5021443;28;20041;-82
2023/01/29 00:26:07;;;;;;;8.95;3.22;;;3.90;99.90;;;;;;5020232;28;20143;-83
2023/01/29 00:28:33;;;;;;;5.57;2.60;;;3.90;99.90;;;;;;5004426;28;20059;-82
2023/01/29 00:31:31;;;;;;;6.00;3.35;;;3.90;99.90;;;;;;5001795;28;20156;-82
2023/01/29 00:33:57;;;;;;;7.00;3.53;;;3.90;99.90;;;;;;5034774;28;20672;-82
2023/01/29 00:36:24;;;;;;;6.55;3.35;;;4.00;99.90;;;;;;5003605;28;21460;-82
2023/01/29 00:38:58;;;;;;;8.95;3.83;;;4.00;99.90;;;;;;5021586;28;20051;-82
2023/01/29 00:47:00;;;;;;;5.28;3.33;;;4.00;99.90;;;;;;5017966;28;20618;-82
2023/01/29 00:49:26;;;;;;;10.30;4.35;;;4.00;99.90;;;;;;5005918;28;20052;-82
2023/01/29 00:54:36;;;;;;;8.93;4.00;;;4.00;99.90;;;;;;5056413;28;20063;-82
2023/01/29 00:57:03;;;;;;;10.93;4.30;;;4.10;99.90;;;;;;5027759;28;20491;-82
2023/01/29 00:59:29;;;;;;;6.93;2.90;;;4.10;99.90;;;;;;5029066;28;20607;-82
2023/01/29 01:04:38;;;;;;;9.85;4.10;;;4.10;99.90;;;;;;5022796;28;20041;-82
2023/01/29 01:07:05;;;;;;;7.53;3.47;;;4.10;99.90;;;;;;5023851;28;20465;-83
2023/01/29 01:12:14;;;;;;;10.57;4.35;;;4.10;99.90;;;;;;5021526;28;20073;-82
2023/01/29 01:14:42;;;;;;;7.20;3.40;;;4.10;99.90;;;;;;5022400;28;20211;-82
2023/01/29 01:17:08;;;;;;;9.18;4.47;;;4.10;99.90;;;;;;5007260;28;20034;-83
2023/01/29 01:19:34;;;;;;;5.68;3.30;;;4.10;99.90;;;;;;5020362;28;20487;-82
2023/01/29 01:21:59;;;;;;;7.32;3.40;;;4.10;99.90;;;;;;5023853;28;20048;-82
2023/01/29 01:24:25;;;;;;;6.07;3.60;;;4.10;99.90;;;;;;5022817;28;20511;-82
2023/01/29 01:26:50;;;;;;;7.15;3.90;;;4.10;99.90;;;;;;5023609;28;20088;-82
2023/01/29 01:29:16;;;;;;;5.80;3.67;;;4.10;99.90;;;;;;5024760;28;20563;-82
2023/01/29 01:31:42;;;;;;;9.20;4.15;;;4.10;99.90;;;;;;5040590;28;20041;-82
2023/01/29 01:34:07;;;;;;;6.90;3.58;;;4.10;99.90;;;;;;5021865;28;20091;-82
2023/01/29 01:36:33;;;;;;;8.70;4.72;;;4.00;99.90;;;;;;5003822;28;20411;-82
2023/01/29 01:38:58;;;;;;;9.30;3.92;;;4.10;99.90;;;;;;5022391;28;20053;-82
2023/01/29 01:41:24;;;;;;;6.53;3.88;;;4.10;99.90;;;;;;5020911;28;20045;-82
2023/01/29 01:43:49;;;;;;;6.78;3.22;;;4.10;99.90;;;;;;5056759;28;20048;-82
2023/01/29 01:46:15;;;;;;;8.48;4.20;;;4.00;99.90;;;;;;5021788;28;20045;-82
2023/01/29 01:48:43;;;;;;;7.05;3.65;;;4.10;99.90;;;;;;5004902;28;20071;-83
2023/01/29 01:51:09;;;;;;;12.15;4.40;;;4.10;99.90;;;;;;5019432;28;20691;-82
2023/01/29 01:53:41;;;;;;;9.13;3.92;;;4.10;99.90;;;;;;5022938;28;20045;-82
2023/01/29 01:56:13;;;;;;;8.30;4.03;;;4.10;99.90;;;;;;5004474;28;20052;-83
2023/01/29 01:58:44;;;;;;;8.32;4.45;;;4.10;99.90;;;;;;5009264;28;20113;-82
2023/01/29 02:01:11;;;;;;;7.10;3.40;;;4.10;99.90;;;;;;5009377;28;20533;-82
2023/01/29 02:09:34;;;;;;;7.43;3.65;;;4.10;99.90;;;;;;5023342;28;20144;-82
2023/01/29 02:12:11;;;;;;;10.73;3.70;;;4.10;99.90;;;;;;5005840;28;20029;-82
2023/01/29 02:14:39;;;;;;;9.90;4.18;;;4.20;99.90;;;;;;5021428;28;20037;-82
2023/01/29 02:17:06;;;;;;;9.18;4.20;;;4.20;99.90;;;;;;5036916;28;20033;-82
2023/01/29 02:19:38;;;;;;;8.20;3.50;;;4.20;99.90;;;;;;5006166;28;20091;-82
2023/01/29 02:22:24;;;;;;;9.48;4.07;;;4.20;99.90;;;;;;5005096;28;20033;-82
2023/01/29 02:25:25;;;;;;;10.10;4.43;;;4.20;99.90;;;;;;5021831;28;20076;-82
2023/01/29 02:28:20;;;;;;;8.45;4.82;;;4.20;99.90;;;;;;5003836;28;20057;-82
2023/01/29 02:31:05;;;;;;;9.25;3.75;;;4.20;99.90;;;;;;5003137;28;20136;-82
2023/01/29 02:33:45;;;;;;;7.85;4.45;;;4.20;99.90;;;;;;5003397;28;20120;-82
2023/01/29 02:36:35;;;;;;;8.75;3.97;;;4.20;99.90;;;;;;5006469;28;20037;-82
2023/01/29 02:39:07;;;;;;;9.32;3.80;;;4.20;99.90;;;;;;5021224;28;20045;-82
2023/01/29 02:41:48;;;;;;;25.63;5.20;;;4.20;99.90;;;;;;5019564;28;20037;-82
2023/01/29 02:44:50;;;;;;;10.93;4.10;;;4.20;99.90;;;;;;5007342;28;20056;-82
2023/01/29 02:47:52;;;;;;;5.85;3.75;;;4.20;99.90;;;;;;5001716;28;20148;-82
2023/01/29 02:50:35;;;;;;;10.10;5.28;;;4.10;99.90;;;;;;5038395;28;20127;-82
2023/01/29 02:53:09;;;;;;;7.70;4.25;;;4.20;99.90;;;;;;5021108;28;20326;-82
2023/01/29 02:55:43;;;;;;;8.88;4.32;;;4.20;99.90;;;;;;5055702;28;20080;-82
2023/01/29 02:58:19;;;;;;;6.90;3.53;;;4.10;99.90;;;;;;5025932;28;20033;-82
2023/01/29 03:00:46;;;;;;;11.10;4.07;;;4.20;99.90;;;;;;5040950;28;20045;-82
2023/01/29 03:03:30;;;;;;;7.80;3.55;;;4.10;99.90;;;;;;5020952;28;20052;-82
2023/01/29 03:06:10;;;;;;;8.60;4.25;;;4.20;99.90;;;;;;5009240;28;20499;-82
2023/01/29 03:08:44;;;;;;;10.00;3.58;;;4.10;99.90;;;;;;5005788;28;20385;-82
2023/01/29 03:11:14;;;;;;;8.35;4.00;;;4.10;99.90;;;;;;5019379;28;20033;-82
2023/01/29 03:14:01;;;;;;;7.75;3.70;;;4.20;99.90;;;;;;5019674;28;20186;-82
2023/01/29 03:16:50;;;;;;;5.95;3.72;;;4.10;99.90;;;;;;5032364;28;20072;-82
2023/01/29 03:19:27;;;;;;;7.43;3.60;;;4.10;99.90;;;;;;5004854;28;20041;-82
2023/01/29 03:21:59;;;;;;;6.57;3.85;;;4.20;99.90;;;;;;5005148;28;20053;-82
2023/01/29 03:33:57;;;;;;;7.85;4.00;;;4.20;99.90;;;;;;5019419;28;20053;-82
2023/01/29 03:36:38;;;;;;;5.85;3.72;;;4.10;99.90;;;;;;5021053;28;20040;-82
2023/01/29 03:39:10;;;;;;;8.75;4.40;;;4.10;99.90;;;;;;5005617;28;20387;-82
2023/01/29 03:42:14;;;;;;;9.60;4.18;;;4.10;99.90;;;;;;5038957;28;20073;-82
2023/01/29 03:44:42;;;;;;;9.65;4.53;;;4.10;99.90;;;;;;5005434;28;20044;-82
2023/01/29 03:47:40;;;;;;;8.35;4.15;;;4.10;99.90;;;;;;5022195;28;20045;-82
2023/01/29 03:50:19;;;;;;;7.18;4.10;;;4.10;99.90;;;;;;5022463;28;20364;-82
2023/01/29 03:53:04;;;;;;;10.15;3.88;;;4.10;99.90;;;;;;5010534;28;20503;-82
2023/01/29 03:55:46;;;;;;;7.22;3.30;;;4.10;99.90;;;;;;5040933;28;20037;-82
2023/01/29 03:58:37;;;;;;;11.52;4.03;;;4.10;99.90;;;;;;5021707;28;20033;-82
2023/01/29 04:01:15;;;;;;;9.38;4.18;;;4.20;99.90;;;;;;5038090;28;20088;-82
2023/01/29 04:04:12;;;;;;;6.88;3.72;;;4.20;99.90;;;;;;5039785;28;20049;-82
2023/01/29 04:06:42;;;;;;;6.70;3.55;;;4.20;99.90;;;;;;5053626;28;20061;-82
2023/01/29 04:09:21;;;;;;;6.47;3.53;;;4.20;99.90;;;;;;5052986;28;20049;-82
2023/01/29 04:12:14;;;;;;;7.72;3.38;;;4.20;99.90;;;;;;5001295;28;20033;-82
2023/01/29 04:14:40;;;;;;;10.95;4.25;;;4.20;99.90;;;;;;5016783;28;20652;-82
2023/01/29 04:17:15;;;;;;;9.43;4.03;;;4.20;99.90;;;;;;5021390;28;20052;-82
2023/01/29 04:19:41;;;;;;;9.48;4.68;;;4.20;99.90;;;;;;5003279;28;20758;-82
2023/01/29 04:22:14;;;;;;;6.22;3.65;;;4.20;99.90;;;;;;5002183;28;20033;-82
2023/01/29 04:24:41;;;;;;;8.85;3.80;;;4.20;99.90;;;;;;5016400;28;20033;-82
2023/01/29 04:27:29;;;;;;;9.43;4.05;;;4.20;99.90;;;;;;5024142;28;20073;-82
2023/01/29 04:30:03;;;;;;;8.70;4.38;;;4.30;99.90;;;;;;5023125;28;20120;-82
2023/01/29 04:32:50;;;;;;;7.72;3.53;;;4.30;99.90;;;;;;5023427;28;20041;-82
2023/01/29 04:35:27;;;;;;;;;;;4.30;99.90;;;;;;5041667;28;20094;-82
2023/01/29 04:38:07;;;;;;;8.88;3.92;;;4.30;99.90;;;;;;5042046;28;20554;-82
2023/01/29 04:40:44;;;;;;;10.90;4.65;;;4.30;99.90;;;;;;5006960;28;20038;-83
2023/01/29 04:43:37;;;;;;;9.52;4.43;;;4.30;99.90;;;;;;5021810;28;20726;-82
2023/01/29 04:46:12;;;;;;;9.43;4.72;;;4.40;99.90;;;;;;5039233;28;20042;-82
2023/01/29 04:49:15;;;;;;;8.95;4.32;;;4.40;99.90;;;;;;5040036;28;20111;-82
2023/01/29 04:52:01;;;;;;;8.55;3.42;;;4.30;99.90;;;;;;5005154;28;20038;-82
2023/01/29 04:54:48;;;;;;;9.43;4.03;;;4.30;99.90;;;;;;5022834;28;20044;-83
2023/01/29 04:57:24;;;;;;;8.30;4.22;;;4.40;99.90;;;;;;5008705;28;20154;-83
2023/01/29 05:00:07;;;;;;;11.38;4.68;;;4.40;99.90;;;;;;5009687;28;20061;-83
2023/01/29 05:02:38;;;;;;;7.85;4.00;;;4.40;99.90;;;;;;5021199;28;20056;-82
2023/01/29 05:05:05;;;;;;;12.18;4.72;;;4.40;99.90;;;;;;5008027;28;20529;-82
2023/01/29 05:07:34;;;;;;;10.30;4.82;;;4.40;99.90;;;;;;5007477;28;20056;-82
2023/01/29 05:10:00;;;;;;;14.05;5.28;;;4.40;99.90;;;;;;5003694;28;20045;-82
2023/01/29 05:12:29;;;;;;;8.75;4.68;;;4.40;99.90;;;;;;5007269;28;20072;-82
2023/01/29 05:14:59;;;;;;;8.07;4.75;;;4.40;99.90;;;;;;5005105;28;20121;-82
2023/01/29 05:17:25;;;;;;;11.32;4.97;;;4.40;99.90;;;;;;5025344;28;20033;-83
2023/01/29 05:19:51;;;;;;;18.33;5.85;;;4.40;99.90;;;;;;5007827;28;20426;-82
2023/01/29 05:22:21;;;;;;;12.85;4.57;;;4.40;99.90;;;;;;5022090;28;20060;-82
2023/01/29 05:24:47;;;;;;;11.30;5.32;;;4.40;99.90;;;;;;5003633;28;20530;-82
2023/01/29 05:30:05;;;;;;;10.23;4.65;;;4.40;99.90;;;;;;5055260;28;20044;-82
2023/01/29 05:32:30;;;;;;;13.82;4.68;;;4.40;99.90;;;;;;5008010;28;20565;-82
2023/01/29 05:34:56;;;;;;;10.20;5.05;;;4.40;99.90;;;;;;5022744;28;20030;-82
2023/01/29 05:37:22;;;;;;;9.50;4.45;;;4.40;99.90;;;;;;5022944;28;20384;-83
2023/01/29 05:39:47;;;;;;;10.45;4.55;;;4.40;99.90;;;;;;5023507;28;20037;-82
2023/01/29 05:42:13;;;;;;;8.98;4.55;;;4.40;99.90;;;;;;5056767;28;20076;-82
2023/01/29 05:44:39;;;;;;;9.30;4.72;;;4.40;99.90;;;;;;5024577;28;20111;-82
2023/01/29 05:47:04;;;;;;;8.05;4.35;;;4.40;99.90;;;;;;5019709;28;20041;-82
2023/01/29 05:49:30;;;;;;;10.20;4.68;;;4.50;99.90;;;;;;5006622;28;20029;-82
2023/01/29 05:51:56;;;;;;;10.70;5.82;;;4.40;99.90;;;;;;5005550;28;20041;-82
2023/01/29 05:54:21;;;;;;;9.93;4.70;;;4.40;99.90;;;;;;5038808;28;21181;-82
2023/01/29 05:56:47;;;;;;;11.07;5.15;;;4.40;99.90;;;;;;5022394;28;20404;-82
2023/01/29 05:59:14;;;;;;;9.85;4.60;;;4.50;99.90;;;;;;5021051;28;20079;-82
2023/01/29 06:01:39;;;;;;;11.77;5.40;;;4.50;99.90;;;;;;5022034;28;20038;-82
2023/01/29 06:04:05;;;;;;;11.23;5.40;;;4.40;99.90;;;;;;5022171;28;20110;-82
2023/01/29 06:06:31;;;;;;;9.80;4.93;;;4.50;99.90;;;;;;5020063;28;20076;-83
2023/01/29 06:08:56;;;;;;;11.23;5.95;;;4.50;99.90;;;;;;5023795;28;20430;-83
2023/01/29 06:11:22;;;;;;;9.07;4.75;;;4.40;99.90;;;;;;5021007;28;20124;-83
2023/01/29 06:13:48;;;;;;;9.20;4.78;;;4.50;99.90;;;;;;5005985;28;20037;-82
2023/01/29 06:16:14;;;;;;;12.32;5.35;;;4.40;99.90;;;;;;5005023;28;20048;-82
2023/01/29 06:18:40;;;;;;;9.30;4.78;;;4.50;99.90;;;;;;5004238;28;20036;-82
2023/01/29 06:21:08;;;;;;;9.88;4.78;;;4.50;99.90;;;;;;5005830;28;20053;-82
2023/01/29 06:23:34;;;;;;;13.07;5.90;;;4.40;99.90;;;;;;5003257;28;20041;-82
2023/01/29 06:26:05;;;;;;;13.73;5.57;;;4.40;99.90;;;;;;5020590;28;20032;-82
2023/01/29 06:28:31;;;;;;;12.13;5.45;;;4.50;99.90;;;;;;5006627;28;20038;-82
2023/01/29 06:30:58;;;;;;;7.68;4.50;;;4.50;99.90;;;;;;5004311;28;20061;-82
2023/01/29 06:33:24;;;;;;;9.93;5.07;;;4.50;99.90;;;;;;5004245;28;20041;-82
2023/01/29 06:36:02;;;;;;;11.20;5.13;;;4.50;99.90;;;;;;5021347;28;20037;-82
2023/01/29 06:38:28;;;;;;;11.48;5.50;;;4.50;99.90;;;;;;5005513;28;20044;-82
2023/01/29 06:40:54;;;;;;;10.57;5.53;;;4.50;99.90;;;;;;5022030;28;20037;-82
2023/01/29 06:43:20;;;;;;;10.32;5.03;;;4.50;99.90;;;;;;5004925;28;20053;-82
2023/01/29 06:45:51;;;;;;;12.20;6.10;;;4.50;99.90;;;;;;5021015;28;20049;-82
2023/01/29 06:48:17;;;;;;;12.45;5.85;;;4.50;99.90;;;;;;5001531;28;20037;-82
2023/01/29 06:50:43;;;;;;;15.40;6.22;;;4.50;99.90;;;;;;5005543;28;20594;-82
2023/01/29 06:53:10;;;;;;;9.32;4.38;;;4.50;99.90;;;;;;5004993;28;20120;-82
2023/01/29 06:55:35;;;;;;;13.77;5.13;;;4.50;99.90;;;;;;5020687;28;20061;-82
2023/01/29 06:58:09;;;;;;;15.68;5.78;;;4.50;99.90;;;;;;5025117;28;20122;-82
2023/01/29 07:00:35;;;;;;;9.68;4.85;;;4.50;99.90;;;;;;5008249;28;20040;-82
2023/01/29 07:03:01;;;;;;;9.63;4.82;;;4.50;99.90;;;;;;5021134;28;20061;-82
2023/01/29 07:05:27;;;;;;;11.80;5.32;;;4.50;99.90;;;;;;5018887;28;20754;-82
2023/01/29 07:07:53;;;;;;;10.48;5.07;;;4.50;99.90;;;;;;5020382;28;20046;-82
2023/01/29 07:10:19;;;;;;;9.60;5.40;;;4.50;99.90;;;;;;5004772;28;20053;-82
2023/01/29 07:12:44;;;;;;;12.07;5.45;;;4.50;99.90;;;;;;5004868;28;20033;-82
2023/01/29 07:15:11;;;;;;;9.95;5.20;;;4.50;99.90;;;;;;5054311;28;20057;-82
2023/01/29 07:17:37;;;;;;;12.13;5.85;;;4.50;99.90;;;;;;5006204;28;20627;-82
2023/01/29 07:20:04;;;;;;;11.20;5.72;;;4.50;99.90;;;;;;5006914;28;20049;-82
2023/01/29 07:22:30;;;;;;;12.50;5.90;;;4.50;99.90;;;;;;5034178;28;20061;-82
2023/01/29 07:24:56;;;;;;;8.80;5.30;;;4.50;99.90;;;;;;5056651;28;20102;-82
2023/01/29 07:27:21;;;;;;;9.57;5.53;;;4.50;99.90;;;;;;5039931;28;20746;-82
2023/01/29 07:29:47;;;;;;;11.13;6.43;;;4.50;99.90;;;;;;5006222;28;20135;-82
2023/01/29 07:32:12;;;;;;;9.25;5.63;;;4.50;99.90;;;;;;5006774;28;20041;-82
2023/01/29 07:34:38;;;;;;;11.10;5.35;;;4.50;99.90;;;;;;5056409;28;20041;-82
2023/01/29 07:37:05;;;;;;;12.75;5.15;;;4.50;99.90;;;;;;5036380;28;20494;-82
2023/01/29 07:39:31;;;;;;;12.10;5.13;;;4.50;99.90;;;;;;5056540;28;20491;-82
2023/01/29 07:41:56;;;;;;;11.77;5.60;;;4.50;99.90;;;;;;5007810;28;20128;-82
2023/01/29 07:44:22;;;;;;;14.85;5.97;;;4.50;99.90;;;;;;5006704;28;20570;-82
2023/01/29 07:46:48;;;;;;;9.63;5.88;;;4.50;99.90;;;;;;5037523;28;20086;-82
2023/01/29 07:49:14;;;;;;;11.50;6.05;;;4.50;99.90;;;;;;5007049;28;20038;-82
2023/01/29 07:51:40;;;;;;;10.80;6.15;;;4.50;99.90;;;;;;5023164;28;20124;-82
2023/01/29 07:54:06;;;;;;;11.32;5.38;;;4.50;99.90;;;;;;5025869;28;20124;-82
2023/01/29 07:56:31;;;;;;;11.20;5.68;;;4.60;99.90;;;;;;5009154;28;20033;-82
2023/01/29 07:58:57;;;;;;;9.15;5.15;;;4.60;99.90;;;;;;5005257;28;20029;-82
2023/01/29 08:01:22;;;;;;;9.82;5.22;;;4.50;99.90;;;;;;5013861;28;20083;-82
2023/01/29 08:03:48;;;;;;;12.00;6.10;;;4.60;99.90;;;;;;5022383;28;20557;-82
2023/01/29 08:06:14;;;;;;;11.35;5.80;;;4.60;99.90;;;;;;5016308;28;20046;-82
2023/01/29 08:08:39;;;;;;;9.75;5.60;;;4.60;99.90;;;;;;5063241;28;20423;-83
2023/01/29 08:11:05;;;;;;;13.52;5.60;;;4.50;99.90;;;;;;5008745;28;20033;-82
2023/01/29 08:13:31;;;;;;;11.38;5.63;;;4.60;99.90;;;;;;5063318;28;20116;-83
2023/01/29 08:16:02;;;;;;;12.90;6.88;;;4.50;99.90;;;;;;5010312;28;20040;-82
2023/01/29 08:18:27;;;;;;;12.05;5.53;;;4.50;99.90;;;;;;5023305;28;20033;-82
2023/01/29 08:20:58;;;;;;;10.60;5.70;;;4.60;99.90;;;;;;5058159;28;20041;-82
2023/01/29 08:23:24;;;;;;;13.13;5.80;;;4.50;99.90;;;;;;5043413;28;20045;-82
2023/01/29 08:25:49;;;;;;;15.20;6.20;;;4.50;99.90;;;;;;5057125;28;20040;-82
2023/01/29 08:28:15;;;;;;;11.13;5.80;;;4.60;99.90;;;;;;5007954;28;20868;-82
2023/01/29 08:30:42;;;;;;;11.23;5.97;;;4.60;99.90;;;;;;5002844;28;20087;-82
2023/01/29 08:33:08;;;;;;;11.70;6.32;;;4.60;99.90;;;;;;5035102;28;20488;-82
2023/01/29 08:35:34;;;;;;;10.73;5.18;;;4.60;99.90;;;;;;5026239;28;20030;-82
2023/01/29 08:38:02;;;;;;;14.45;6.57;;;4.70;99.90;;;;;;5004427;28;20438;-82
2023/01/29 08:40:30;;;;;;;12.90;6.40;;;4.70;99.90;;;;;;5037862;28;20037;-82
2023/01/29 08:43:01;;;;;;;15.80;7.18;;;4.70;99.90;;;;;;5004427;28;20462;-83
2023/01/29 08:45:27;;;;;;;13.52;5.97;;;4.70;99.90;;;;;;5003235;28;20160;-82
2023/01/29 08:47:52;;;;;;;15.55;6.82;;;4.80;99.90;;;;;;5020448;28;20144;-82
2023/01/29 08:50:18;;;;;;;13.32;6.80;;;4.80;99.90;;;;;;5054489;28;20080;-82
2023/01/29 08:52:44;;;;;;;14.35;6.57;;;4.80;99.90;;;;;;5023332;28;20060;-82
2023/01/29 08:55:10;;;;;;;13.55;5.82;;;4.80;99.90;;;;;;5021040;28;20037;-82
2023/01/29 08:57:37;;;;;;;12.50;6.85;;;4.80;99.90;;;;;;5007377;28;20037;-82
2023/01/29 09:00:05;;;;;;;12.60;5.97;;;4.90;99.90;;;;;;5007705;28;20755;-82
2023/01/29 09:02:30;;;;;;;13.35;5.90;;;4.90;99.90;;;;;;5004200;28;20091;-82
2023/01/29 09:04:56;;;;;;;12.85;7.00;;;4.90;99.90;;;;;;5007783;28;20322;-82
2023/01/29 09:07:22;;;;;;;11.35;6.00;;;4.90;99.90;;;;;;5024150;28;20499;-82
2023/01/29 09:09:47;;;;;;;12.57;6.15;;;4.90;99.90;;;;;;5006933;28;20556;-82
2023/01/29 09:12:13;;;;;;;12.18;6.63;;;4.90;99.90;;;;;;5056159;28;20051;-82
2023/01/29 09:14:38;;;;;;;15.70;6.70;;;5.00;99.90;;;;;;5022303;28;20026;-83
2023/01/29 09:17:04;;;;;;;14.48;6.05;;;5.00;99.90;;;;;;5054910;28;20033;-82
2023/01/29 09:19:30;;;;;;;14.10;6.35;;;5.00;99.90;;;;;;5024866;28;20103;-82
2023/01/29 09:21:55;;;;;;;10.35;5.55;;;5.00;99.90;;;;;;5025086;28;20048;-83
2023/01/29 09:24:21;;;;;;;13.05;6.05;;;5.00;99.90;;;;;;5010548;28;20095;-82
2023/01/29 09:26:46;;;;;;;10.85;6.00;;;5.10;99.90;;;;;;5002315;28;20517;-82
2023/01/29 09:29:12;;;;;;;13.43;6.35;;;5.00;99.90;;;;;;5005148;28;20045;-82
2023/01/29 09:31:38;;;;;;;11.45;5.90;;;5.10;99.90;;;;;;5019742;28;20120;-82
2023/01/29 09:34:03;;;;;;;16.10;6.13;;;5.10;99.90;;;;;;5020258;28;20479;-82
2023/01/29 09:36:29;;;;;;;15.63;6.47;;;5.10;99.90;;;;;;5007412;28;20087;-82
2023/01/29 09:38:55;;;;;;;13.10;5.22;;;5.10;99.90;;;;;;5004671;28;20696;-82
2023/01/29 09:41:41;;;;;;;16.13;7.57;;;5.10;99.90;;;;;;5020018;28;20399;-82
2023/01/29 09:44:18;;;;;;;13.90;5.65;;;5.10;99.90;;;;;;5018009;28;20136;-82
2023/01/29 09:46:47;;;;;;;12.77;6.32;;;5.10;99.90;;;;;;5006402;28;20049;-82
2023/01/29 09:49:26;;;;;;;13.98;6.43;;;5.10;99.90;;;;;;5001231;28;20045;-82
2023/01/29 09:51:57;;;;;;;13.90;6.65;;;5.10;99.90;;;;;;5022755;28;20041;-82
2023/01/29 09:54:31;;;;;;;14.40;5.95;;;5.10;99.90;;;;;;5037881;28;20044;-82
2023/01/29 09:56:57;;;;;;;12.45;5.03;;;5.10;99.90;;;;;;5056058;28;20076;-82
2023/01/29 09:59:26;;;;;;;11.70;5.70;;;5.10;99.90;;;;;;5018343;28;20065;-82
2023/01/29 10:02:02;;;;;;;12.48;6.28;;;5.20;99.90;;;;;;5003768;28;20641;-82
2023/01/29 10:04:40;;;;;;;12.23;6.15;;;5.20;99.90;;;;;;5019036;28;20045;-82
2023/01/29 10:07:29;;;;;;;13.00;5.93;;;5.20;99.90;;;;;;5001833;28;20533;-82
2023/01/29 10:10:05;;;;;;;14.68;5.35;;;5.20;99.90;;;;;;5046742;28;20073;-82
2023/01/29 10:13:10;;;;;;;15.35;6.45;;;5.30;99.90;;;;;;5053930;28;20156;-82
2023/01/29 10:15:46;;;;;;;15.80;5.75;;;5.30;99.90;;;;;;4984592;28;20048;-83
2023/01/29 10:18:40;;;;;;;11.85;6.63;;;5.30;99.90;;;;;;5004454;28;20038;-82
2023/01/29 10:21:27;;;;;;;15.02;6.32;;;5.30;99.90;;;;;;5047442;28;20041;-82
2023/01/29 10:24:04;;;;;;;13.15;5.70;;;5.40;99.90;;;;;;5002554;28;20038;-83
2023/01/29 10:26:32;;;;;;;12.60;5.57;;;5.40;99.90;;;;;;5005700;28;20132;-82
2023/01/29 10:28:59;;;;;;;15.40;6.43;;;5.40;99.90;;;;;;5026883;28;20450;-82
2023/01/29 10:31:35;;;;;;;14.13;6.25;;;5.40;99.90;;;;;;5009388;28;20483;-82
2023/01/29 10:34:15;;;;;;;15.50;6.32;;;5.40;99.90;;;;;;5005972;28;20531;-82
2023/01/29 10:36:48;;;;;;;13.65;6.47;;;5.40;99.90;;;;;;4995886;28;21504;-82
2023/01/29 10:39:22;;;;;;;15.85;5.95;;;5.40;99.90;;;;;;4996496;28;20643;-82
2023/01/29 10:42:04;;;;;;;11.93;5.78;;;5.40;99.90;;;;;;4999884;28;20048;-82
2023/01/29 10:44:41;;;;;;;13.07;5.20;;;5.30;99.90;;;;;;5020628;28;20096;-83
2023/01/29 10:47:20;;;;;;;15.23;6.15;;;5.30;99.90;;;;;;5023039;28;20122;-82
2023/01/29 10:50:10;;;;;;;12.52;5.43;;;5.30;99.90;;;;;;5007919;28;20045;-82
2023/01/29 10:53:02;;;;;;;15.10;6.63;;;5.30;99.90;;;;;;5022848;28;20033;-82
2023/01/29 10:55:40;;;;;;;13.93;5.47;;;5.30;99.90;;;;;;5006656;28;20045;-82
2023/01/29 10:58:39;;;;;;;13.93;6.35;;;5.30;99.90;;;;;;5020458;28;20033;-82
2023/01/29 11:01:04;;;;;;;13.63;6.10;;;5.30;99.90;;;;;;5022756;28;20163;-82
2023/01/29 11:03:32;;;;;;;11.00;5.30;;;5.30;99.90;;;;;;5048392;28;20525;-82
2023/01/29 11:06:20;;;;;;;12.82;5.75;;;5.30;99.90;;;;;;5016554;28;20095;-83
2023/01/29 11:08:55;;;;;;;12.85;6.20;;;5.30;99.90;;;;;;5015129;28;20087;-82
2023/01/29 11:11:32;;;;;;;16.92;6.82;;;5.30;99.90;;;;;;5018258;28;20399;-82
2023/01/29 11:14:11;;;;;;;10.95;6.13;;;5.30;99.90;;;;;;5018194;28;20562;-82
2023/01/29 11:16:43;;;;;;;14.93;6.28;;;5.30;99.90;;;;;;5017599;28;20489;-82
2023/01/29 11:19:10;;;;;;;14.25;6.32;;;5.30;99.90;;;;;;5051233;28;20041;-82
2023/01/29 11:21:54;;;;;;;11.93;5.38;;;5.30;99.90;;;;;;5014698;28;20065;-82
2023/01/29 11:24:20;;;;;;;14.32;5.85;;;5.30;99.90;;;;;;5001732;28;20028;-82
2023/01/29 11:26:48;;;;;;;12.77;5.85;;;5.40;99.90;;;;;;5002202;28;20425;-82
2023/01/29 11:29:34;;;;;;;16.85;7.05;;;5.40;99.90;;;;;;5019167;28;20665;-82
2023/01/29 11:32:04;;;;;;;13.73;6.28;;;5.40;99.90;;;;;;5000579;28;20041;-82
2023/01/29 11:34:30;;;;;;;12.93;5.43;;;5.40;99.90;;;;;;5002674;28;20128;-82
2023/01/29 11:37:04;;;;;;;14.35;6.55;;;5.40;99.90;;;;;;5004525;28;20072;-82
2023/01/29 11:39:31;;;;;;;12.60;5.35;;;5.40;99.90;;;;;;5003848;28;20124;-82
2023/01/29 11:41:59;;;;;;;14.40;5.90;;;5.30;99.90;;;;;;5006828;28;20277;-82
2023/01/29 11:44:27;;;;;;;13.70;6.25;;;5.30;99.90;;;;;;5013456;28;20088;-81
2023/01/29 11:46:54;;;;;;;16.13;6.38;;;5.40;99.90;;;;;;5016414;28;20041;-82
2023/01/29 11:49:33;;;;;;;13.73;6.18;;;5.40;99.90;;;;;;5004887;28;20116;-82
2023/01/29 11:52:03;;;;;;;11.98;6.28;;;5.40;99.90;;;;;;5036486;28;20036;-82
2023/01/29 11:54:34;;;;;;;12.65;6.80;;;5.40;99.90;;;;;;4997612;28;20046;-83
2023/01/29 11:57:00;;;;;;;13.55;6.40;;;5.40;99.90;;;;;;5008671;28;20038;-82
2023/01/29 11:59:38;;;;;;;14.35;6.68;;;5.40;99.90;;;;;;4994079;28;20064;-83
2023/01/29 12:02:11;;;;;;;14.38;6.25;;;5.50;99.90;;;;;;4997676;28;20048;-82
2023/01/29 12:04:38;;;;;;;14.85;6.18;;;5.40;99.90;;;;;;4999258;28;20053;-82
2023/01/29 12:07:13;;;;;;;11.88;5.45;;;5.40;99.90;;;;;;5026696;28;20274;-83
2023/01/29 12:09:40;;;;;;;15.75;6.43;;;5.40;99.90;;;;;;5010817;28;20527;-82
2023/01/29 12:12:23;;;;;;;13.65;5.80;;;5.40;99.90;;;;;;5028195;28;20048;-82
2023/01/29 12:15:13;;;;;;;15.70;5.82;;;5.50;99.90;;;;;;5027732;28;20545;-82
2023/01/29 12:17:41;;;;;;;14.88;6.97;;;5.40;99.90;;;;;;5027954;28;20041;-82
2023/01/29 12:20:27;;;;;;;19.95;6.82;;;5.40;99.90;;;;;;5026546;28;20048;-82
2023/01/29 12:23:18;;;;;;;15.85;6.75;;;5.50;99.90;;;;;;5059614;28;20053;-82
2023/01/29 12:26:00;;;;;;;11.90;7.18;;;5.60;99.90;;;;;;5022170;28;20068;-82
2023/01/29 12:29:10;;;;;;;12.57;6.35;;;5.60;99.90;;;;;;5027746;28;20052;-82
2023/01/29 12:32:13;;;;;;;14.57;6.72;;;5.60;99.90;;;;;;4990639;28;20152;-82
2023/01/29 12:34:55;;;;;;;14.40;6.22;;;5.70;99.90;;;;;;5008749;28;20034;-82
2023/01/29 12:37:44;;;;;;;15.27;5.97;;;5.70;99.90;;;;;;5044435;28;20128;-82
2023/01/29 12:40:15;;;;;;;11.63;5.63;;;5.70;99.90;;;;;;5010627;28;20041;-82
2023/01/29 12:42:45;;;;;;;14.07;6.32;;;5.70;99.90;;;;;;5011690;28;20038;-82
2023/01/29 12:45:19;;;;;;;11.10;5.82;;;5.80;99.90;;;;;;5044279;28;20124;-82
2023/01/29 12:47:50;;;;;;;18.63;7.05;;;5.80;99.90;;;;;;5063591;28;20026;-82
2023/01/29 12:50:27;;;;;;;12.32;7.20;;;5.80;99.90;;;;;;5013427;28;20084;-82
2023/01/29 12:53:02;;;;;;;12.23;5.30;;;5.80;99.90;;;;;;5030036;28;20561;-82
2023/01/29 12:55:37;;;;;;;11.65;5.50;;;5.80;99.90;;;;;;5014267;28;20038;-82
2023/01/29 12:58:09;;;;;;;10.98;5.43;;;5.80;99.90;;;;;;5014765;28;20029;-82
2023/01/29 13:00:39;;;;;;;12.27;6.05;;;5.80;99.90;;;;;;5015394;28;20407;-82
2023/01/29 13:03:30;;;;;;;13.02;6.32;;;5.90;99.90;;;;;;5011333;28;20521;-83
2023/01/29 13:06:19;;;;;;;13.35;5.20;;;5.90;99.90;;;;;;5024659;28;20037;-82
2023/01/29 13:08:52;;;;;;;10.02;4.80;;;5.80;99.90;;;;;;5041750;28;20045;-82
2023/01/29 13:11:25;;;;;;;22.33;7.70;;;5.80;99.90;;;;;;5026486;28;20045;-82
2023/01/29 13:13:58;;;;;;;16.27;8.82;;;5.80;99.90;;;;;;5006996;28;20045;-84
2023/01/29 13:16:32;;;;;;;21.98;9.93;;;5.80;99.90;;;;;;5037149;28;20038;-82
2023/01/29 13:19:04;;;;;;;17.90;7.65;;;5.80;99.90;;;;;;5025786;28;20119;-82
2023/01/29 13:21:36;;;;;;;14.70;6.57;;;5.80;99.90;;;;;;5053912;28;20042;-82
2023/01/29 13:24:10;;;;;;;13.32;6.03;;;5.70;99.90;;;;;;5006942;28;20497;-82
2023/01/29 13:26:36;;;;;;;17.38;6.97;;;5.70;99.90;;;;;;5023217;28;20505;-82
2023/01/29 13:29:04;;;;;;;13.95;7.93;;;5.70;99.90;;;;;;5055315;28;20068;-82
2023/01/29 13:31:39;;;;;;;28.80;11.18;;;5.70;99.90;;;;;;5019878;28;20142;-82
2023/01/29 13:34:27;;;;;;;24.73;10.75;;;5.60;99.90;;;;;;5019760;28;20045;-82
2023/01/29 13:36:58;;;;;;;30.52;11.73;;;5.60;99.90;;;;;;5040917;28;20048;-82
2023/01/29 13:39:34;;;;;;;33.45;12.73;;;5.50;99.90;;;;;;5008985;28;20069;-83
2023/01/29 13:42:01;;;;;;;;;;;5.50;99.90;;;;;;5010250;28;20505;-82
2023/01/29 13:44:31;;;;;;;21.98;9.70;;;5.50;99.90;;;;;;5023013;28;19975;-82
2023/01/29 13:47:19;;;;;;;24.23;10.50;;;5.50;99.90;;;;;;5024563;28;20052;-82
2023/01/29 13:49:52;;;;;;;25.20;10.98;;;5.50;99.90;;;;;;5025004;28;20052;-82